createdAt,value
2023-02-26T00:00:21.508Z,2.42
2023-02-26T00:01:24.967Z,2.43
2023-02-26T00:02:26.910Z,2.45
2023-02-26T00:03:28.734Z,2.47
2023-02-26T00:04:30.564Z,2.49
2023-02-26T00:05:32.399Z,2.49
2023-02-26T00:06:36.140Z,2.50
2023-02-26T00:07:38.857Z,2.50
2023-02-26T00:08:40.707Z,2.51
2023-02-26T00:09:42.546Z,2.53
2023-02-26T00:10:44.360Z,2.55
2023-02-26T00:11:46.586Z,2.55
2023-02-26T00:12:48.626Z,2.52
2023-02-26T00:13:50.485Z,2.48
2023-02-26T00:14:52.966Z,2.46
2023-02-26T00:15:58.966Z,2.44
2023-02-26T00:17:19.257Z,2.46
2023-02-26T00:18:21.261Z,2.44
2023-02-26T00:19:23.073Z,2.38
2023-02-26T00:20:25.567Z,2.38
2023-02-26T00:21:28.583Z,2.34
2023-02-26T00:22:30.522Z,2.26
2023-02-26T00:23:32.523Z,2.23
2023-02-26T00:24:34.312Z,2.23
2023-02-26T00:25:36.106Z,2.24
2023-02-26T00:26:37.869Z,2.27
2023-02-26T00:27:40.041Z,2.33
2023-02-26T00:28:41.976Z,2.36
2023-02-26T00:29:43.878Z,2.40
2023-02-26T00:30:45.875Z,2.42
2023-02-26T00:31:47.994Z,2.42
2023-02-26T00:32:50.061Z,2.46
2023-02-26T00:33:55.311Z,2.46
2023-02-26T00:34:57.269Z,2.39
2023-02-26T00:36:10.352Z,2.41
2023-02-26T00:37:27.478Z,2.40
2023-02-26T00:38:32.893Z,2.38
2023-02-26T00:39:37.542Z,2.41
2023-02-26T00:40:49.475Z,2.43
2023-02-26T00:41:51.416Z,2.40
2023-02-26T00:42:53.495Z,2.33
2023-02-26T00:43:55.431Z,2.33
2023-02-26T00:44:57.402Z,2.36
2023-02-26T00:46:22.027Z,2.40
2023-02-26T00:47:34.318Z,2.42
2023-02-26T00:48:42.143Z,2.42
2023-02-26T00:49:50.164Z,2.42
2023-02-26T00:50:57.283Z,2.35
2023-02-26T00:52:02.568Z,2.38
2023-02-26T00:53:04.480Z,2.35
2023-02-26T00:54:20.873Z,2.37
2023-02-26T00:55:22.585Z,2.27
2023-02-26T00:56:24.681Z,2.20
2023-02-26T00:57:26.667Z,2.11
2023-02-26T00:58:28.491Z,2.07
2023-02-26T00:59:30.400Z,2.04
2023-02-26T01:00:32.222Z,2.07
2023-02-26T01:01:34.150Z,2.07
2023-02-26T01:02:36.602Z,2.05
2023-02-26T01:03:39.173Z,1.99
2023-02-26T01:04:41.387Z,1.97
2023-02-26T01:05:43.410Z,1.99
2023-02-26T01:06:46.824Z,2.02
2023-02-26T01:08:00.678Z,1.99
2023-02-26T01:09:05.960Z,2.03
2023-02-26T01:10:08.176Z,2.01
2023-02-26T01:11:10.023Z,1.96
2023-02-26T01:12:13.555Z,1.92
2023-02-26T01:13:15.474Z,1.93
2023-02-26T01:14:17.650Z,1.95
2023-02-26T01:15:19.713Z,1.95
2023-02-26T01:16:25.142Z,1.95
2023-02-26T01:17:34.346Z,1.97
2023-02-26T01:18:43.726Z,2.03
2023-02-26T01:20:10.440Z,2.06
2023-02-26T01:21:15.664Z,2.03
2023-02-26T01:22:20.238Z,1.89
2023-02-26T01:23:25.897Z,1.85
2023-02-26T01:24:30.480Z,1.86
2023-02-26T01:25:50.662Z,1.85
2023-02-26T01:26:53.049Z,1.80
2023-02-26T01:27:57.141Z,1.75
2023-02-26T01:28:59.130Z,1.79
2023-02-26T01:30:01.080Z,1.83
2023-02-26T01:31:05.799Z,1.84
2023-02-26T01:32:25.550Z,1.78
2023-02-26T01:33:35.832Z,1.76
2023-02-26T01:34:42.590Z,1.73
2023-02-26T01:35:44.317Z,1.73
2023-02-26T01:37:09.043Z,1.69
2023-02-26T01:38:17.854Z,1.74
2023-02-26T01:39:29.591Z,1.75
2023-02-26T01:40:34.129Z,1.76
2023-02-26T01:41:39.003Z,1.75
2023-02-26T01:42:43.784Z,1.74
2023-02-26T01:43:48.585Z,1.75
2023-02-26T01:45:00.466Z,1.77
2023-02-26T01:46:10.790Z,1.79
2023-02-26T01:47:27.894Z,1.75
2023-02-26T01:48:48.267Z,1.59
2023-02-26T01:49:50.164Z,1.57
2023-02-26T01:50:51.978Z,1.46
2023-02-26T01:51:57.716Z,1.50
2023-02-26T01:53:18.689Z,1.58
2023-02-26T01:54:22.047Z,1.64
2023-02-26T01:55:25.079Z,1.61
2023-02-26T01:56:27.112Z,1.64
2023-02-26T01:57:29.219Z,1.66
2023-02-26T01:58:33.578Z,1.66
2023-02-26T01:59:37.345Z,1.60
2023-02-26T02:00:39.220Z,1.60
2023-02-26T02:01:41.871Z,1.62
2023-02-26T02:02:43.936Z,1.65
2023-02-26T02:03:46.495Z,1.66
2023-02-26T02:04:48.782Z,1.66
2023-02-26T02:05:52.341Z,1.64
2023-02-26T02:06:55.143Z,1.61
2023-02-26T02:07:57.753Z,1.60
2023-02-26T02:08:59.589Z,1.61
2023-02-26T02:10:01.368Z,1.61
2023-02-26T02:11:04.223Z,1.62
2023-02-26T02:12:18.236Z,1.62
2023-02-26T02:13:26.593Z,1.58
2023-02-26T02:14:28.587Z,1.59
2023-02-26T02:15:43.112Z,1.61
2023-02-26T02:16:49.333Z,1.64
2023-02-26T02:18:09.230Z,1.62
2023-02-26T02:19:11.181Z,1.65
2023-02-26T02:20:12.931Z,1.66
2023-02-26T02:21:17.506Z,1.67
2023-02-26T02:22:37.882Z,1.65
2023-02-26T02:23:39.626Z,1.66
2023-02-26T02:24:41.526Z,1.64
2023-02-26T02:26:01.826Z,1.66
2023-02-26T02:27:15.922Z,1.64
2023-02-26T02:28:36.460Z,1.63
2023-02-26T02:29:53.811Z,1.60
2023-02-26T02:30:58.532Z,1.63
2023-02-26T02:32:09.296Z,1.61
2023-02-26T02:33:15.655Z,1.59
2023-02-26T02:34:40.204Z,1.57
2023-02-26T02:35:45.223Z,1.59
2023-02-26T02:36:47.029Z,1.57
2023-02-26T02:37:51.913Z,1.54
2023-02-26T02:38:57.493Z,1.54
2023-02-26T02:40:04.794Z,1.56
2023-02-26T02:41:10.645Z,1.56
2023-02-26T02:42:18.348Z,1.55
2023-02-26T02:43:22.651Z,1.51
2023-02-26T02:44:26.459Z,1.48
2023-02-26T02:45:43.788Z,1.49
2023-02-26T02:46:47.588Z,1.48
2023-02-26T02:47:53.603Z,1.50
2023-02-26T02:49:13.646Z,1.51
2023-02-26T02:50:19.645Z,1.53
2023-02-26T02:51:27.354Z,1.50
2023-02-26T02:52:33.975Z,1.50
2023-02-26T02:53:47.764Z,1.51
2023-02-26T02:54:52.243Z,1.54
2023-02-26T02:55:59.786Z,1.55
2023-02-26T02:57:04.870Z,1.56
2023-02-26T02:58:08.682Z,1.56
2023-02-26T02:59:10.522Z,1.56
2023-02-26T03:00:13.622Z,1.53
2023-02-26T03:01:18.994Z,1.55
2023-02-26T03:02:31.438Z,1.53
2023-02-26T03:03:51.112Z,1.54
2023-02-26T03:04:52.897Z,1.53
2023-02-26T03:05:54.792Z,1.58
2023-02-26T03:06:56.832Z,1.62
2023-02-26T03:08:04.030Z,1.63
2023-02-26T03:09:07.409Z,1.65
2023-02-26T03:10:09.562Z,1.67
2023-02-26T03:11:11.448Z,1.69
2023-02-26T03:12:13.324Z,1.65
2023-02-26T03:13:17.515Z,1.63
2023-02-26T03:14:19.294Z,1.68
2023-02-26T03:15:26.662Z,1.70
2023-02-26T03:16:28.553Z,1.71
2023-02-26T03:17:30.348Z,1.70
2023-02-26T03:18:41.194Z,1.72
2023-02-26T03:19:42.990Z,1.72
2023-02-26T03:20:58.404Z,1.73
2023-02-26T03:22:03.550Z,1.76
2023-02-26T03:23:22.793Z,1.77
2023-02-26T03:24:24.594Z,1.70
2023-02-26T03:25:32.654Z,1.71
2023-02-26T03:26:45.119Z,1.69
2023-02-26T03:27:55.360Z,1.61
2023-02-26T03:29:06.182Z,1.63
2023-02-26T03:30:11.150Z,1.64
2023-02-26T03:31:20.731Z,1.66
2023-02-26T03:32:30.385Z,1.68
2023-02-26T03:33:32.198Z,1.65
2023-02-26T03:34:56.012Z,1.60
2023-02-26T03:36:03.518Z,1.60
2023-02-26T03:37:08.009Z,1.64
2023-02-26T03:38:12.291Z,1.65
2023-02-26T03:39:32.002Z,1.64
2023-02-26T03:40:40.276Z,1.60
2023-02-26T03:41:47.521Z,1.47
2023-02-26T03:42:53.035Z,1.45
2023-02-26T03:43:57.452Z,1.44
2023-02-26T03:45:06.010Z,1.47
2023-02-26T03:46:09.642Z,1.44
2023-02-26T03:47:14.040Z,1.48
2023-02-26T03:48:18.425Z,1.46
2023-02-26T03:49:32.082Z,1.45
2023-02-26T03:50:43.692Z,1.44
2023-02-26T03:51:46.580Z,1.48
2023-02-26T03:52:50.082Z,1.51
2023-02-26T03:53:58.930Z,1.44
2023-02-26T03:55:05.096Z,1.41
2023-02-26T03:56:11.817Z,1.37
2023-02-26T03:57:13.693Z,1.38
2023-02-26T03:58:15.536Z,1.37
2023-02-26T03:59:17.857Z,1.34
2023-02-26T04:00:20.136Z,1.37
2023-02-26T04:01:28.858Z,1.37
2023-02-26T04:02:35.128Z,1.37
2023-02-26T04:03:40.723Z,1.38
2023-02-26T04:04:45.971Z,1.40
2023-02-26T04:05:52.188Z,1.39
2023-02-26T04:06:54.548Z,1.38
2023-02-26T04:07:57.322Z,1.38
2023-02-26T04:08:59.596Z,1.39
2023-02-26T04:10:01.630Z,1.38
2023-02-26T04:11:08.527Z,1.38
2023-02-26T04:12:11.119Z,1.40
2023-02-26T04:13:12.830Z,1.43
2023-02-26T04:14:14.625Z,1.39
2023-02-26T04:15:16.457Z,1.37
2023-02-26T04:16:19.065Z,1.42
2023-02-26T04:17:20.938Z,1.42
2023-02-26T04:18:22.793Z,1.33
2023-02-26T04:19:24.591Z,1.29
2023-02-26T04:20:26.392Z,1.31
2023-02-26T04:21:28.210Z,1.32
2023-02-26T04:22:30.213Z,1.34
2023-02-26T04:23:32.333Z,1.39
2023-02-26T04:24:34.127Z,1.40
2023-02-26T04:25:35.926Z,1.43
2023-02-26T04:26:37.856Z,1.40
2023-02-26T04:27:39.629Z,1.42
2023-02-26T04:28:41.677Z,1.37
2023-02-26T04:29:43.485Z,1.33
2023-02-26T04:30:45.327Z,1.26
2023-02-26T04:31:47.419Z,1.25
2023-02-26T04:32:49.334Z,1.28
2023-02-26T04:33:51.071Z,1.30
2023-02-26T04:34:52.941Z,1.30
2023-02-26T04:35:54.800Z,1.27
2023-02-26T04:36:56.588Z,1.28
2023-02-26T04:37:58.405Z,1.29
2023-02-26T04:39:00.108Z,1.27
2023-02-26T04:40:01.974Z,1.28
2023-02-26T04:41:04.099Z,1.30
2023-02-26T04:42:05.899Z,1.33
2023-02-26T04:43:07.772Z,1.32
2023-02-26T04:44:09.604Z,1.32
2023-02-26T04:45:11.371Z,1.33
2023-02-26T04:46:13.256Z,1.32
2023-02-26T04:47:15.172Z,1.28
2023-02-26T04:48:17.029Z,1.31
2023-02-26T04:49:18.905Z,1.33
2023-02-26T04:50:20.786Z,1.35
2023-02-26T04:51:22.655Z,1.34
2023-02-26T04:52:24.545Z,1.35
2023-02-26T04:53:26.382Z,1.39
2023-02-26T04:54:28.733Z,1.38
2023-02-26T04:55:30.575Z,1.40
2023-02-26T04:56:33.017Z,1.43
2023-02-26T04:57:34.833Z,1.46
2023-02-26T04:58:36.733Z,1.49
2023-02-26T04:59:39.172Z,1.51
2023-02-26T05:00:40.964Z,1.52
2023-02-26T05:01:42.913Z,1.54
2023-02-26T05:02:44.693Z,1.53
2023-02-26T05:03:46.538Z,1.56
2023-02-26T05:04:48.353Z,1.59
2023-02-26T05:05:50.161Z,1.55
2023-02-26T05:06:51.988Z,1.53
2023-02-26T05:07:56.994Z,1.56
2023-02-26T05:08:58.841Z,1.57
2023-02-26T05:10:00.602Z,1.57
2023-02-26T05:11:02.424Z,1.55
2023-02-26T05:12:04.278Z,1.56
2023-02-26T05:13:06.250Z,1.53
2023-02-26T05:14:08.078Z,1.54
2023-02-26T05:15:10.050Z,1.55
2023-02-26T05:16:11.942Z,1.52
2023-02-26T05:17:13.738Z,1.49
2023-02-26T05:18:15.519Z,1.50
2023-02-26T05:19:17.360Z,1.49
2023-02-26T05:20:19.212Z,1.47
2023-02-26T05:21:23.433Z,1.42
2023-02-26T05:22:26.518Z,1.34
2023-02-26T05:23:29.299Z,1.35
2023-02-26T05:24:31.074Z,1.39
2023-02-26T05:25:32.821Z,1.37
2023-02-26T05:26:34.755Z,1.34
2023-02-26T05:27:36.632Z,1.32
2023-02-26T05:28:38.398Z,1.27
2023-02-26T05:29:42.424Z,1.26
2023-02-26T05:30:44.206Z,1.28
2023-02-26T05:31:46.209Z,1.29
2023-02-26T05:32:48.043Z,1.23
2023-02-26T05:33:49.730Z,1.22
2023-02-26T05:34:51.512Z,1.17
2023-02-26T05:35:53.473Z,1.13
2023-02-26T05:36:55.222Z,1.07
2023-02-26T05:37:57.141Z,1.03
2023-02-26T05:38:59.003Z,0.98
2023-02-26T05:40:00.769Z,0.99
2023-02-26T05:41:03.008Z,0.99
2023-02-26T05:42:04.861Z,1.02
2023-02-26T05:43:06.687Z,1.04
2023-02-26T05:44:09.724Z,1.07
2023-02-26T05:45:11.739Z,1.07
2023-02-26T05:46:14.322Z,1.06
2023-02-26T05:47:16.127Z,1.03
2023-02-26T05:48:18.112Z,0.93
2023-02-26T05:49:19.953Z,0.86
2023-02-26T05:50:21.831Z,0.80
2023-02-26T05:51:23.641Z,0.79
2023-02-26T05:52:25.413Z,0.76
2023-02-26T05:53:27.382Z,0.74
2023-02-26T05:54:29.967Z,0.75
2023-02-26T05:55:31.722Z,0.77
2023-02-26T05:56:33.527Z,0.77
2023-02-26T05:57:35.329Z,0.81
2023-02-26T05:58:37.538Z,0.80
2023-02-26T05:59:39.356Z,0.72
2023-02-26T06:00:41.222Z,0.68
2023-02-26T06:01:42.968Z,0.68
2023-02-26T06:02:44.831Z,0.72
2023-02-26T06:03:46.717Z,0.76
2023-02-26T06:04:48.724Z,0.80
2023-02-26T06:05:50.543Z,0.83
2023-02-26T06:06:52.328Z,0.86
2023-02-26T06:07:54.146Z,0.88
2023-02-26T06:08:56.036Z,0.91
2023-02-26T06:09:57.852Z,0.92
2023-02-26T06:10:59.669Z,0.95
2023-02-26T06:12:01.646Z,0.88
2023-02-26T06:13:03.681Z,0.86
2023-02-26T06:14:05.550Z,0.78
2023-02-26T06:15:08.011Z,0.73
2023-02-26T06:16:09.838Z,0.72
2023-02-26T06:17:11.606Z,0.62
2023-02-26T06:18:13.397Z,0.60
2023-02-26T06:19:15.201Z,0.57
2023-02-26T06:20:17.156Z,0.50
2023-02-26T06:21:19.339Z,0.49
2023-02-26T06:22:21.115Z,0.55
2023-02-26T06:23:22.930Z,0.57
2023-02-26T06:24:24.820Z,0.63
2023-02-26T06:25:26.779Z,0.68
2023-02-26T06:26:28.947Z,0.67
2023-02-26T06:27:30.943Z,0.71
2023-02-26T06:28:33.224Z,0.74
2023-02-26T06:29:35.385Z,0.73
2023-02-26T06:30:37.321Z,0.75
2023-02-26T06:31:39.187Z,0.77
2023-02-26T06:32:41.449Z,0.80
2023-02-26T06:33:43.276Z,0.81
2023-02-26T06:34:45.077Z,0.79
2023-02-26T06:35:47.405Z,0.80
2023-02-26T06:36:49.237Z,0.78
2023-02-26T06:37:51.154Z,0.74
2023-02-26T06:38:53.078Z,0.66
2023-02-26T06:39:54.907Z,0.65
2023-02-26T06:40:56.909Z,0.57
2023-02-26T06:41:58.768Z,0.48
2023-02-26T06:43:00.686Z,0.41
2023-02-26T06:44:02.545Z,0.48
2023-02-26T06:45:04.630Z,0.58
2023-02-26T06:46:06.654Z,0.65
2023-02-26T06:47:08.494Z,0.69
2023-02-26T06:48:10.379Z,0.73
2023-02-26T06:49:12.182Z,0.78
2023-02-26T06:50:14.050Z,0.82
2023-02-26T06:51:15.879Z,0.80
2023-02-26T06:52:17.751Z,0.76
2023-02-26T06:53:19.501Z,0.74
2023-02-26T06:54:21.371Z,0.75
2023-02-26T06:55:27.159Z,0.79
2023-02-26T06:56:30.057Z,0.84
2023-02-26T06:57:32.043Z,0.86
2023-02-26T06:58:33.870Z,0.83
2023-02-26T06:59:35.780Z,0.86
2023-02-26T07:00:38.292Z,0.87
2023-02-26T07:01:40.177Z,0.90
2023-02-26T07:02:42.056Z,0.89
2023-02-26T07:03:43.832Z,0.90
2023-02-26T07:04:45.752Z,0.92
2023-02-26T07:05:47.726Z,0.94
2023-02-26T07:06:49.497Z,0.95
2023-02-26T07:07:51.286Z,0.97
2023-02-26T07:08:53.198Z,1.00
2023-02-26T07:09:55.030Z,1.04
2023-02-26T07:10:56.982Z,1.06
2023-02-26T07:11:58.745Z,1.10
2023-02-26T07:13:00.738Z,1.11
2023-02-26T07:14:02.488Z,1.14
2023-02-26T07:15:07.600Z,1.10
2023-02-26T07:16:09.608Z,1.09
2023-02-26T07:17:20.766Z,1.08
2023-02-26T07:18:22.914Z,1.09
2023-02-26T07:19:24.725Z,1.11
2023-02-26T07:20:26.975Z,1.10
2023-02-26T07:21:28.935Z,1.04
2023-02-26T07:22:30.690Z,1.03
2023-02-26T07:23:32.477Z,0.99
2023-02-26T07:24:34.272Z,0.97
2023-02-26T07:25:36.107Z,0.94
2023-02-26T07:26:37.969Z,1.00
2023-02-26T07:27:41.179Z,1.04
2023-02-26T07:28:43.876Z,1.11
2023-02-26T07:29:45.672Z,1.14
2023-02-26T07:30:47.742Z,1.11
2023-02-26T07:31:49.815Z,1.12
2023-02-26T07:32:51.699Z,1.12
2023-02-26T07:33:53.507Z,1.09
2023-02-26T07:34:55.876Z,1.10
2023-02-26T07:35:57.908Z,1.04
2023-02-26T07:36:59.941Z,1.08
2023-02-26T07:38:01.895Z,1.13
2023-02-26T07:39:03.774Z,1.18
2023-02-26T07:40:05.866Z,1.21
2023-02-26T07:41:07.655Z,1.18
2023-02-26T07:42:10.058Z,1.18
2023-02-26T07:43:11.926Z,1.16
2023-02-26T07:44:13.771Z,1.17
2023-02-26T07:45:18.760Z,1.22
2023-02-26T07:46:20.620Z,1.25
2023-02-26T07:47:22.569Z,1.26
2023-02-26T07:48:24.368Z,1.28
2023-02-26T07:49:26.238Z,1.33
2023-02-26T07:50:28.025Z,1.38
2023-02-26T07:51:31.607Z,1.39
2023-02-26T07:52:34.283Z,1.37
2023-02-26T07:53:36.066Z,1.38
2023-02-26T07:54:37.972Z,1.38
2023-02-26T07:55:39.821Z,1.39
2023-02-26T07:56:43.045Z,1.37
2023-02-26T07:57:44.912Z,1.36
2023-02-26T07:58:46.751Z,1.29
2023-02-26T07:59:48.584Z,1.33
2023-02-26T08:00:51.570Z,1.38
2023-02-26T08:01:53.360Z,1.42
2023-02-26T08:02:55.218Z,1.48
2023-02-26T08:03:57.148Z,1.51
2023-02-26T08:04:58.941Z,1.48
2023-02-26T08:06:00.792Z,1.47
2023-02-26T08:07:02.629Z,1.49
2023-02-26T08:08:05.079Z,1.47
2023-02-26T08:09:06.978Z,1.46
2023-02-26T08:10:09.257Z,1.54
2023-02-26T08:11:11.100Z,1.62
2023-02-26T08:12:13.013Z,1.62
2023-02-26T08:13:14.916Z,1.62
2023-02-26T08:14:16.670Z,1.57
2023-02-26T08:15:18.525Z,1.49
2023-02-26T08:16:20.416Z,1.45
2023-02-26T08:17:22.299Z,1.48
2023-02-26T08:18:24.457Z,1.46
2023-02-26T08:19:26.352Z,1.47
2023-02-26T08:20:28.192Z,1.53
2023-02-26T08:21:29.946Z,1.58
2023-02-26T08:22:31.831Z,1.65
2023-02-26T08:23:33.728Z,1.68
2023-02-26T08:24:35.606Z,1.72
2023-02-26T08:25:37.396Z,1.83
2023-02-26T08:26:39.361Z,1.91
2023-02-26T08:27:41.167Z,1.98
2023-02-26T08:28:43.040Z,2.00
2023-02-26T08:29:46.661Z,1.97
2023-02-26T08:30:48.530Z,2.03
2023-02-26T08:31:50.741Z,2.10
2023-02-26T08:32:52.652Z,2.18
2023-02-26T08:33:55.077Z,2.25
2023-02-26T08:34:56.970Z,2.31
2023-02-26T08:35:59.398Z,2.38
2023-02-26T08:37:01.289Z,2.35
2023-02-26T08:38:03.159Z,2.36
2023-02-26T08:39:05.037Z,2.38
2023-02-26T08:40:08.595Z,2.37
2023-02-26T08:41:10.595Z,2.30
2023-02-26T08:42:12.667Z,2.27
2023-02-26T08:43:14.414Z,2.23
2023-02-26T08:44:16.127Z,2.19
2023-02-26T08:45:18.045Z,2.14
2023-02-26T08:46:19.970Z,2.15
2023-02-26T08:47:28.389Z,2.20
2023-02-26T08:48:30.502Z,2.26
2023-02-26T08:49:32.390Z,2.25
2023-02-26T08:50:34.153Z,2.28
2023-02-26T08:51:36.040Z,2.25
2023-02-26T08:52:38.925Z,2.23
2023-02-26T08:53:40.746Z,2.20
2023-02-26T08:54:42.568Z,2.23
2023-02-26T08:55:47.610Z,2.26
2023-02-26T08:56:49.469Z,2.27
2023-02-26T08:57:51.352Z,2.15
2023-02-26T08:58:53.170Z,2.16
2023-02-26T08:59:55.004Z,2.19
2023-02-26T09:00:56.792Z,2.13
2023-02-26T09:01:58.752Z,2.10
2023-02-26T09:03:00.700Z,2.13
2023-02-26T09:04:02.573Z,2.17
2023-02-26T09:05:04.747Z,2.24
2023-02-26T09:06:06.659Z,2.17
2023-02-26T09:07:08.439Z,2.07
2023-02-26T09:08:11.815Z,2.06
2023-02-26T09:09:13.574Z,2.05
2023-02-26T09:10:15.507Z,2.10
2023-02-26T09:11:17.382Z,2.20
2023-02-26T09:12:19.324Z,2.29
2023-02-26T09:13:21.131Z,2.36
2023-02-26T09:14:23.687Z,2.32
2023-02-26T09:15:25.541Z,2.30
2023-02-26T09:16:27.723Z,2.29
2023-02-26T09:17:29.969Z,2.33
2023-02-26T09:18:31.776Z,2.34
2023-02-26T09:19:33.704Z,2.32
2023-02-26T09:20:35.549Z,2.33
2023-02-26T09:21:37.390Z,2.31
2023-02-26T09:22:39.217Z,2.31
2023-02-26T09:23:41.009Z,2.28
2023-02-26T09:24:42.853Z,2.30
2023-02-26T09:25:44.881Z,2.29
2023-02-26T09:26:46.695Z,2.29
2023-02-26T09:27:48.492Z,2.27
2023-02-26T09:28:50.581Z,2.30
2023-02-26T09:29:52.433Z,2.40
2023-02-26T09:30:55.035Z,2.52
2023-02-26T09:31:57.183Z,2.54
2023-02-26T09:32:59.083Z,2.60
2023-02-26T09:34:01.013Z,2.65
2023-02-26T09:35:04.051Z,2.71
2023-02-26T09:36:06.177Z,2.72
2023-02-26T09:37:08.762Z,2.72
2023-02-26T09:38:11.014Z,2.80
2023-02-26T09:39:13.321Z,2.90
2023-02-26T09:40:28.562Z,2.97
2023-02-26T09:41:34.388Z,3.00
2023-02-26T09:42:42.277Z,3.09
2023-02-26T09:44:08.236Z,3.15
2023-02-26T09:45:20.543Z,3.18
2023-02-26T09:46:39.640Z,3.23
2023-02-26T09:47:46.830Z,3.27
2023-02-26T09:48:50.766Z,3.31
2023-02-26T09:49:55.301Z,3.33
2023-02-26T09:50:58.549Z,3.33
2023-02-26T09:52:12.565Z,3.25
2023-02-26T09:53:23.219Z,3.23
2023-02-26T09:54:26.178Z,3.20
2023-02-26T09:55:48.310Z,3.09
2023-02-26T09:56:52.575Z,3.00
2023-02-26T09:58:05.302Z,2.97
2023-02-26T09:59:09.328Z,2.95
2023-02-26T10:00:37.910Z,2.96
2023-02-26T10:01:45.816Z,2.99
2023-02-26T10:02:53.771Z,2.95
2023-02-26T10:04:20.594Z,2.91
2023-02-26T10:05:22.721Z,3.00
2023-02-26T10:06:33.438Z,3.07
2023-02-26T10:07:43.775Z,3.23
2023-02-26T10:08:52.557Z,3.36
2023-02-26T10:10:09.414Z,3.38
2023-02-26T10:11:14.706Z,3.60
2023-02-26T10:12:18.369Z,3.73
2023-02-26T10:13:38.500Z,3.84
2023-02-26T10:15:03.804Z,3.75
2023-02-26T10:16:08.076Z,3.66
2023-02-26T10:17:19.208Z,3.56
2023-02-26T10:18:26.852Z,3.52
2023-02-26T10:19:33.295Z,3.46
2023-02-26T10:20:49.956Z,3.43
2023-02-26T10:22:01.458Z,3.44
2023-02-26T10:23:18.229Z,3.34
2023-02-26T10:24:23.443Z,3.21
2023-02-26T10:25:33.506Z,3.19
2023-02-26T10:26:45.950Z,3.16
2023-02-26T10:27:57.158Z,3.00
2023-02-26T10:29:15.524Z,2.88
2023-02-26T10:30:27.028Z,2.70
2023-02-26T10:31:44.901Z,2.64
2023-02-26T10:32:53.852Z,2.62
2023-02-26T10:34:04.675Z,2.59
2023-02-26T10:35:17.112Z,2.57
2023-02-26T10:36:41.072Z,2.48
2023-02-26T10:38:03.266Z,2.36
2023-02-26T10:39:15.179Z,2.29
2023-02-26T10:40:16.978Z,2.30
2023-02-26T10:41:21.076Z,2.20
2023-02-26T10:42:28.056Z,2.14
2023-02-26T10:43:38.745Z,2.18
2023-02-26T10:44:45.209Z,2.16
2023-02-26T10:46:07.526Z,2.11
2023-02-26T10:47:21.297Z,2.02
2023-02-26T10:48:23.221Z,1.97
2023-02-26T10:49:25.103Z,1.94
2023-02-26T10:50:27.946Z,1.98
2023-02-26T10:51:34.286Z,2.03
2023-02-26T10:52:36.766Z,1.99
2023-02-26T10:53:40.745Z,2.01
2023-02-26T10:54:49.663Z,2.10
2023-02-26T10:55:54.919Z,2.13
2023-02-26T10:56:57.336Z,2.22
2023-02-26T10:58:13.786Z,2.24
2023-02-26T10:59:16.793Z,2.32
2023-02-26T11:00:20.867Z,2.32
2023-02-26T11:01:25.106Z,2.38
2023-02-26T11:02:35.073Z,2.45
2023-02-26T11:03:41.065Z,2.49
2023-02-26T11:04:43.164Z,2.46
2023-02-26T11:05:45.355Z,2.37
2023-02-26T11:06:53.162Z,2.31
2023-02-26T11:07:57.207Z,2.20
2023-02-26T11:09:00.726Z,2.21
2023-02-26T11:10:03.113Z,2.20
2023-02-26T11:11:05.926Z,2.24
2023-02-26T11:12:13.991Z,2.32
2023-02-26T11:13:15.742Z,2.29
2023-02-26T11:14:17.662Z,2.34
2023-02-26T11:15:23.814Z,2.37
2023-02-26T11:16:26.224Z,2.47
2023-02-26T11:17:32.633Z,2.41
2023-02-26T11:18:41.848Z,2.44
2023-02-26T11:19:50.760Z,2.46
2023-02-26T11:20:55.220Z,2.51
2023-02-26T11:21:58.022Z,2.54
2023-02-26T11:23:01.383Z,2.60
2023-02-26T11:24:05.582Z,2.64
2023-02-26T11:25:08.693Z,2.64
2023-02-26T11:26:17.184Z,2.58
2023-02-26T11:27:21.026Z,2.58
2023-02-26T11:28:30.268Z,2.55
2023-02-26T11:29:40.498Z,2.45
2023-02-26T11:30:44.498Z,2.44
2023-02-26T11:31:53.843Z,2.44
2023-02-26T11:32:58.947Z,2.33
2023-02-26T11:34:03.674Z,2.30
2023-02-26T11:35:09.111Z,2.19
2023-02-26T11:36:20.440Z,2.16
2023-02-26T11:37:30.591Z,2.22
2023-02-26T11:38:33.911Z,2.32
2023-02-26T11:39:39.180Z,2.37
2023-02-26T11:40:42.648Z,2.44
2023-02-26T11:41:47.067Z,2.50
2023-02-26T11:42:51.811Z,2.52
2023-02-26T11:44:16.040Z,2.57
2023-02-26T11:45:19.920Z,2.54
2023-02-26T11:46:24.676Z,2.53
2023-02-26T11:47:31.708Z,2.57
2023-02-26T11:48:42.905Z,2.64
2023-02-26T11:49:46.109Z,2.66
2023-02-26T11:50:50.400Z,2.74
2023-02-26T11:52:10.624Z,2.74
2023-02-26T11:53:22.463Z,2.77
2023-02-26T11:54:27.858Z,2.85
2023-02-26T11:55:32.463Z,2.90
2023-02-26T11:56:40.692Z,2.95
2023-02-26T11:57:43.101Z,2.96
2023-02-26T11:58:46.498Z,2.87
2023-02-26T11:59:49.666Z,2.80
2023-02-26T12:00:53.348Z,2.73
2023-02-26T12:01:55.211Z,2.92
2023-02-26T12:03:01.773Z,2.95
2023-02-26T12:04:04.172Z,3.03
2023-02-26T12:05:07.558Z,3.16
2023-02-26T12:06:19.588Z,3.26
2023-02-26T12:07:22.244Z,3.30
2023-02-26T12:08:33.292Z,3.33
2023-02-26T12:09:35.350Z,3.38
2023-02-26T12:10:41.208Z,3.44
2023-02-26T12:12:01.738Z,3.54
2023-02-26T12:13:17.351Z,3.65
2023-02-26T12:14:25.591Z,3.62
2023-02-26T12:15:42.901Z,3.60
2023-02-26T12:16:58.351Z,3.58
2023-02-26T12:18:16.202Z,3.67
2023-02-26T12:19:24.818Z,3.79
2023-02-26T12:20:32.679Z,3.89
2023-02-26T12:21:46.969Z,3.95
2023-02-26T12:22:55.603Z,4.04
2023-02-26T12:24:21.293Z,3.83
2023-02-26T12:25:23.562Z,3.78
2023-02-26T12:26:45.666Z,3.73
2023-02-26T12:28:02.629Z,3.63
2023-02-26T12:29:24.113Z,3.56
2023-02-26T12:30:32.806Z,3.52
2023-02-26T12:31:47.460Z,3.53
2023-02-26T12:33:05.342Z,3.58
2023-02-26T12:34:32.593Z,3.61
2023-02-26T12:35:35.008Z,3.58
2023-02-26T12:36:57.233Z,3.46
2023-02-26T12:38:08.645Z,3.51
2023-02-26T12:39:33.188Z,3.53
2023-02-26T12:40:41.714Z,3.49
2023-02-26T12:41:52.786Z,3.54
2023-02-26T12:42:57.865Z,3.59
2023-02-26T12:44:02.777Z,3.65
2023-02-26T12:45:23.378Z,3.57
2023-02-26T12:46:52.174Z,3.46
2023-02-26T12:48:05.635Z,3.41
2023-02-26T12:49:31.677Z,3.37
2023-02-26T12:50:37.526Z,3.37
2023-02-26T12:51:58.735Z,3.38
2023-02-26T12:53:11.479Z,3.35
2023-02-26T12:54:33.790Z,2.98
2023-02-26T12:55:55.843Z,2.89
2023-02-26T12:57:00.736Z,2.83
2023-02-26T12:58:21.583Z,2.74
2023-02-26T12:59:24.535Z,2.63
2023-02-26T13:00:30.881Z,2.59
2023-02-26T13:01:34.360Z,2.48
2023-02-26T13:02:45.158Z,2.29
2023-02-26T13:03:58.766Z,2.25
2023-02-26T13:05:00.654Z,2.27
2023-02-26T13:06:02.956Z,2.24
2023-02-26T13:07:22.586Z,2.09
2023-02-26T13:08:48.174Z,1.91
2023-02-26T13:09:56.083Z,1.74
2023-02-26T13:11:26.260Z,1.56
2023-02-26T13:12:33.927Z,1.44
2023-02-26T13:13:38.906Z,1.52
2023-02-26T13:14:52.835Z,1.58
2023-02-26T13:16:03.794Z,1.56
2023-02-26T13:17:05.678Z,1.61
2023-02-26T13:18:07.975Z,1.62
2023-02-26T13:19:13.718Z,1.70
2023-02-26T13:20:15.749Z,1.79
2023-02-26T13:21:24.580Z,1.88
2023-02-26T13:22:27.683Z,1.97
2023-02-26T13:23:33.125Z,1.96
2023-02-26T13:24:39.102Z,1.91
2023-02-26T13:25:52.231Z,1.83
2023-02-26T13:26:55.223Z,1.76
2023-02-26T13:28:00.018Z,1.70
2023-02-26T13:29:02.353Z,1.61
2023-02-26T13:30:15.618Z,1.61
2023-02-26T13:31:20.975Z,1.77
2023-02-26T13:32:27.462Z,1.88
2023-02-26T13:33:31.479Z,2.03
2023-02-26T13:34:45.916Z,2.20
2023-02-26T13:35:49.376Z,2.25
2023-02-26T13:36:52.316Z,2.26
2023-02-26T13:37:56.234Z,2.25
2023-02-26T13:39:05.688Z,2.33
2023-02-26T13:40:26.461Z,2.41
2023-02-26T13:41:39.723Z,2.53
2023-02-26T13:42:49.410Z,2.65
2023-02-26T13:43:58.255Z,2.55
2023-02-26T13:45:15.561Z,2.57
2023-02-26T13:46:27.697Z,2.54
2023-02-26T13:47:30.310Z,2.57
2023-02-26T13:48:36.923Z,2.63
2023-02-26T13:49:50.091Z,2.73
2023-02-26T13:51:08.787Z,2.76
2023-02-26T13:52:23.932Z,2.85
2023-02-26T13:53:30.155Z,2.86
2023-02-26T13:54:43.649Z,2.87
2023-02-26T13:55:49.641Z,2.83
2023-02-26T13:57:09.383Z,2.73
2023-02-26T13:58:28.225Z,2.67
2023-02-26T13:59:34.122Z,2.63
2023-02-26T14:00:36.600Z,2.53
2023-02-26T14:01:50.600Z,2.53
2023-02-26T14:02:54.457Z,2.55
2023-02-26T14:04:22.893Z,2.56
2023-02-26T14:05:30.974Z,2.53
2023-02-26T14:06:41.196Z,2.55
2023-02-26T14:07:57.142Z,2.62
2023-02-26T14:09:04.737Z,2.73
2023-02-26T14:10:16.546Z,2.75
2023-02-26T14:11:18.924Z,2.76
2023-02-26T14:12:25.470Z,2.76
2023-02-26T14:13:40.640Z,2.71
2023-02-26T14:14:44.304Z,2.68
2023-02-26T14:15:53.227Z,2.71
2023-02-26T14:17:15.336Z,2.77
2023-02-26T14:18:25.901Z,2.86
2023-02-26T14:19:29.983Z,2.85
2023-02-26T14:20:32.879Z,2.86
2023-02-26T14:21:39.955Z,2.95
2023-02-26T14:22:44.015Z,3.03
2023-02-26T14:23:48.911Z,3.13
2023-02-26T14:24:51.648Z,3.26
2023-02-26T14:25:55.826Z,3.25
2023-02-26T14:27:23.866Z,3.26
2023-02-26T14:28:26.295Z,3.26
2023-02-26T14:29:39.374Z,3.19
2023-02-26T14:30:47.571Z,3.07
2023-02-26T14:31:56.554Z,2.99
2023-02-26T14:33:03.733Z,2.95
2023-02-26T14:34:17.586Z,2.86